createdAt,value
2022-12-23T00:12:06.676Z,8280.9076
2022-12-23T00:27:08.920Z,10235.08194
2022-12-23T00:42:11.164Z,9092.37
2022-12-23T00:57:13.470Z,9708.40535
2022-12-23T01:12:15.780Z,8614.9168
2022-12-23T01:27:18.059Z,9456.97631
2022-12-23T01:42:20.551Z,10235.08194
2022-12-23T01:57:22.823Z,12016.98577
2022-12-23T02:12:25.037Z,12535.99179
2022-12-23T02:27:27.331Z,12535.99179
2022-12-23T02:42:29.559Z,12535.99179
2022-12-23T02:57:31.811Z,12535.99179
2022-12-23T03:12:34.073Z,12535.99179
2022-12-23T03:27:36.332Z,12535.99179
2022-12-23T03:42:38.722Z,12535.99179
2022-12-23T03:57:40.980Z,12535.99179
2022-12-23T04:12:43.268Z,12535.99179
2022-12-23T04:27:45.502Z,12535.99179
2022-12-23T04:42:47.733Z,12535.99179
2022-12-23T04:57:49.950Z,12535.99179
2022-12-23T05:12:52.195Z,12535.99179
2022-12-23T05:27:54.445Z,12535.99179
2022-12-23T05:42:56.694Z,12535.99179
2022-12-23T05:57:58.930Z,12535.99179
2022-12-23T06:13:01.181Z,12535.99179
2022-12-23T06:28:03.416Z,12535.99179
2022-12-23T06:43:05.682Z,12535.99179
2022-12-23T06:58:08.130Z,12535.99179
2022-12-23T07:13:10.539Z,12535.99179
2022-12-23T07:28:12.774Z,12535.99179
2022-12-23T07:43:15.178Z,12535.99179
2022-12-23T07:58:17.413Z,12535.99179
2022-12-23T08:13:19.678Z,12535.99179
2022-12-23T08:28:21.921Z,12535.99179
2022-12-23T08:43:24.133Z,12535.99179
2022-12-23T08:58:26.381Z,12535.99179
2022-12-23T09:13:35.134Z,12535.99179
2022-12-23T09:28:38.352Z,12535.99179
2022-12-23T09:43:40.742Z,12535.99179
2022-12-23T09:58:43.088Z,12535.99179
2022-12-23T10:13:45.532Z,12535.99179
2022-12-23T10:28:47.836Z,12535.99179
2022-12-23T10:43:50.278Z,12535.99179
2022-12-23T10:58:52.581Z,12535.99179
2022-12-23T11:13:54.810Z,12535.99179
2022-12-23T11:28:57.255Z,12535.99179
2022-12-23T11:43:59.464Z,12535.99179
2022-12-23T11:59:01.880Z,12535.99179
2022-12-23T12:14:04.126Z,12535.99179
2022-12-23T12:29:06.350Z,12535.99179
2022-12-23T12:44:08.597Z,12535.99179
2022-12-23T12:59:10.853Z,12535.99179
2022-12-23T13:14:13.072Z,12535.99179
2022-12-23T13:29:15.284Z,12535.99179
2022-12-23T13:44:17.506Z,12535.99179
2022-12-23T13:59:19.804Z,12535.99179
2022-12-23T14:14:22.020Z,12535.99179
2022-12-23T14:29:24.278Z,12535.99179
2022-12-23T14:44:26.547Z,12535.99179
2022-12-23T14:59:28.802Z,12535.99179
2022-12-23T15:14:31.040Z,12535.99179
2022-12-23T15:29:33.279Z,12224.62267
2022-12-23T15:44:35.557Z,11152.70995
2022-12-23T15:59:37.903Z,11130.77739
2022-12-23T16:14:40.125Z,8179.19126
2022-12-23T16:29:42.433Z,8056.94
2022-12-23T16:44:44.665Z,7664.18465
2022-12-23T16:59:46.956Z,7823.08274
2022-12-23T17:14:49.229Z,7977.44941
2022-12-23T17:29:51.422Z,9165.99243
2022-12-23T17:44:53.909Z,9792.38809
2022-12-23T17:59:56.128Z,9725.08646
2022-12-23T18:14:58.557Z,10080.14303
2022-12-23T18:30:00.796Z,9792.38809
2022-12-23T18:45:03.000Z,8687.64441
2022-12-23T19:00:05.253Z,8734.56842
2022-12-23T19:15:07.596Z,9593.22088
2022-12-23T19:30:10.056Z,9886.46343
2022-12-23T19:45:12.285Z,10035.46155
2022-12-23T20:00:14.850Z,10500.92821
2022-12-23T20:15:17.111Z,10500.92821
2022-12-23T20:30:19.314Z,10404.41233
2022-12-23T20:45:21.538Z,11527.49552
2022-12-23T21:00:23.766Z,11779.39708
2022-12-23T21:15:26.024Z,11230.15933
2022-12-23T21:30:28.154Z,10452.44748
2022-12-23T21:45:30.448Z,10116.17571
2022-12-23T22:00:32.688Z,9203.25256
2022-12-23T22:15:34.988Z,8447.7617
2022-12-23T22:30:37.264Z,9675.21422
2022-12-23T22:45:39.474Z,10442.805
2022-12-23T23:00:42.119Z,10442.805
2022-12-23T23:15:44.367Z,10198.19876
2022-12-23T23:30:46.620Z,9218.24157
2022-12-23T23:45:49.033Z,7141.95632
